sensor_id;sensor_type;location;lat;lon;timestamp;temperature;humidity
7686;DHT22;3885;51.474;-2.576;2022-07-24T00:02:07;18.60;99.90
7686;DHT22;3885;51.474;-2.576;2022-07-24T00:04:34;18.60;99.90
7686;DHT22;3885;51.474;-2.576;2022-07-24T00:07:01;18.60;99.90
7686;DHT22;3885;51.474;-2.576;2022-07-24T00:09:28;18.60;99.90
7686;DHT22;3885;51.474;-2.576;2022-07-24T00:11:56;18.50;99.90
7686;DHT22;3885;51.474;-2.576;2022-07-24T00:14:24;18.50;99.90
7686;DHT22;3885;51.474;-2.576;2022-07-24T00:16:51;18.50;99.90
7686;DHT22;3885;51.474;-2.576;2022-07-24T00:19:18;18.50;99.90
7686;DHT22;3885;51.474;-2.576;2022-07-24T00:21:44;18.40;99.90
7686;DHT22;3885;51.474;-2.576;2022-07-24T00:24:11;18.40;99.90
7686;DHT22;3885;51.474;-2.576;2022-07-24T00:26:38;18.50;99.90
7686;DHT22;3885;51.474;-2.576;2022-07-24T00:29:07;18.40;99.90
7686;DHT22;3885;51.474;-2.576;2022-07-24T00:31:34;18.40;99.90
7686;DHT22;3885;51.474;-2.576;2022-07-24T00:34:00;18.40;99.90
7686;DHT22;3885;51.474;-2.576;2022-07-24T00:36:27;18.40;99.90
7686;DHT22;3885;51.474;-2.576;2022-07-24T00:38:54;18.40;99.90
7686;DHT22;3885;51.474;-2.576;2022-07-24T00:41:21;18.40;99.90
7686;DHT22;3885;51.474;-2.576;2022-07-24T00:44:07;18.40;99.90
7686;DHT22;3885;51.474;-2.576;2022-07-24T00:46:36;18.40;99.90
7686;DHT22;3885;51.474;-2.576;2022-07-24T00:49:04;18.30;99.90
7686;DHT22;3885;51.474;-2.576;2022-07-24T00:51:32;18.30;99.90
7686;DHT22;3885;51.474;-2.576;2022-07-24T00:53:59;18.30;99.90
7686;DHT22;3885;51.474;-2.576;2022-07-24T00:56:26;18.30;99.90
7686;DHT22;3885;51.474;-2.576;2022-07-24T00:58:53;18.30;99.90
7686;DHT22;3885;51.474;-2.576;2022-07-24T01:01:21;18.30;99.90
7686;DHT22;3885;51.474;-2.576;2022-07-24T01:03:49;18.30;99.90
7686;DHT22;3885;51.474;-2.576;2022-07-24T01:06:15;18.30;99.90
7686;DHT22;3885;51.474;-2.576;2022-07-24T01:08:42;18.20;99.90
7686;DHT22;3885;51.474;-2.576;2022-07-24T01:11:10;18.20;99.90
7686;DHT22;3885;51.474;-2.576;2022-07-24T01:13:37;18.20;99.90
7686;DHT22;3885;51.474;-2.576;2022-07-24T01:16:05;18.20;99.90
7686;DHT22;3885;51.474;-2.576;2022-07-24T01:18:34;18.20;99.90
7686;DHT22;3885;51.474;-2.576;2022-07-24T01:21:02;18.10;99.90
7686;DHT22;3885;51.474;-2.576;2022-07-24T01:23:29;18.20;99.90
7686;DHT22;3885;51.474;-2.576;2022-07-24T01:25:56;18.20;99.90
7686;DHT22;3885;51.474;-2.576;2022-07-24T01:28:24;18.20;99.90
7686;DHT22;3885;51.474;-2.576;2022-07-24T01:30:51;18.20;99.90
7686;DHT22;3885;51.474;-2.576;2022-07-24T01:33:18;18.20;99.90
7686;DHT22;3885;51.474;-2.576;2022-07-24T01:35:45;18.20;99.90
7686;DHT22;3885;51.474;-2.576;2022-07-24T01:38:13;18.20;99.90
7686;DHT22;3885;51.474;-2.576;2022-07-24T01:40:40;18.20;99.90
7686;DHT22;3885;51.474;-2.576;2022-07-24T01:43:07;18.20;99.90
7686;DHT22;3885;51.474;-2.576;2022-07-24T01:45:34;18.10;99.90
7686;DHT22;3885;51.474;-2.576;2022-07-24T01:48:01;18.10;99.90
7686;DHT22;3885;51.474;-2.576;2022-07-24T01:50:28;18.10;99.90
7686;DHT22;3885;51.474;-2.576;2022-07-24T01:52:55;18.10;99.90
7686;DHT22;3885;51.474;-2.576;2022-07-24T01:55:24;18.10;99.90
7686;DHT22;3885;51.474;-2.576;2022-07-24T01:57:51;18.10;99.90
7686;DHT22;3885;51.474;-2.576;2022-07-24T02:00:18;18.10;99.90
7686;DHT22;3885;51.474;-2.576;2022-07-24T02:02:45;18.10;99.90
7686;DHT22;3885;51.474;-2.576;2022-07-24T02:05:13;18.00;99.90
7686;DHT22;3885;51.474;-2.576;2022-07-24T02:07:40;18.00;99.90
7686;DHT22;3885;51.474;-2.576;2022-07-24T02:10:08;18.00;99.90
7686;DHT22;3885;51.474;-2.576;2022-07-24T02:12:36;18.00;99.90
7686;DHT22;3885;51.474;-2.576;2022-07-24T02:15:04;18.00;99.90
7686;DHT22;3885;51.474;-2.576;2022-07-24T02:17:31;18.00;99.90
7686;DHT22;3885;51.474;-2.576;2022-07-24T02:19:58;18.10;99.90
7686;DHT22;3885;51.474;-2.576;2022-07-24T02:22:25;18.10;99.90
7686;DHT22;3885;51.474;-2.576;2022-07-24T02:24:52;18.10;99.90
7686;DHT22;3885;51.474;-2.576;2022-07-24T02:27:19;18.10;99.90
7686;DHT22;3885;51.474;-2.576;2022-07-24T02:29:47;18.10;99.90
7686;DHT22;3885;51.474;-2.576;2022-07-24T02:32:14;18.10;99.90
7686;DHT22;3885;51.474;-2.576;2022-07-24T02:34:41;18.10;99.90
7686;DHT22;3885;51.474;-2.576;2022-07-24T02:37:08;18.20;99.90
7686;DHT22;3885;51.474;-2.576;2022-07-24T02:39:35;18.10;99.90
7686;DHT22;3885;51.474;-2.576;2022-07-24T02:42:02;18.20;99.90
7686;DHT22;3885;51.474;-2.576;2022-07-24T02:44:29;18.20;99.90
7686;DHT22;3885;51.474;-2.576;2022-07-24T02:46:57;18.20;99.90
7686;DHT22;3885;51.474;-2.576;2022-07-24T02:49:24;18.30;99.90
7686;DHT22;3885;51.474;-2.576;2022-07-24T02:51:51;18.20;99.90
7686;DHT22;3885;51.474;-2.576;2022-07-24T02:54:18;18.20;99.90
7686;DHT22;3885;51.474;-2.576;2022-07-24T02:56:46;18.20;99.90
7686;DHT22;3885;51.474;-2.576;2022-07-24T02:59:14;18.20;99.90
7686;DHT22;3885;51.474;-2.576;2022-07-24T03:01:41;18.20;99.90
7686;DHT22;3885;51.474;-2.576;2022-07-24T03:04:09;18.30;99.90
7686;DHT22;3885;51.474;-2.576;2022-07-24T03:06:36;18.30;99.90
7686;DHT22;3885;51.474;-2.576;2022-07-24T03:09:03;18.30;99.90
7686;DHT22;3885;51.474;-2.576;2022-07-24T03:11:30;18.30;99.90
7686;DHT22;3885;51.474;-2.576;2022-07-24T03:13:57;18.20;99.90
7686;DHT22;3885;51.474;-2.576;2022-07-24T03:16:24;18.20;99.90
7686;DHT22;3885;51.474;-2.576;2022-07-24T03:18:51;18.20;99.90
7686;DHT22;3885;51.474;-2.576;2022-07-24T03:21:19;18.30;99.90
7686;DHT22;3885;51.474;-2.576;2022-07-24T03:23:46;18.30;99.90
7686;DHT22;3885;51.474;-2.576;2022-07-24T03:26:12;18.20;99.90
7686;DHT22;3885;51.474;-2.576;2022-07-24T03:28:40;18.20;99.90
7686;DHT22;3885;51.474;-2.576;2022-07-24T03:31:07;18.20;99.90
7686;DHT22;3885;51.474;-2.576;2022-07-24T03:33:34;18.10;99.90
7686;DHT22;3885;51.474;-2.576;2022-07-24T03:36:00;18.10;99.90
7686;DHT22;3885;51.474;-2.576;2022-07-24T03:38:29;18.10;99.90
7686;DHT22;3885;51.474;-2.576;2022-07-24T03:40:56;18.10;99.90
7686;DHT22;3885;51.474;-2.576;2022-07-24T03:43:23;18.10;99.90
7686;DHT22;3885;51.474;-2.576;2022-07-24T03:45:50;18.10;99.90
7686;DHT22;3885;51.474;-2.576;2022-07-24T03:48:17;18.10;99.90
7686;DHT22;3885;51.474;-2.576;2022-07-24T03:50:44;18.00;99.90
7686;DHT22;3885;51.474;-2.576;2022-07-24T03:53:10;18.00;99.90
7686;DHT22;3885;51.474;-2.576;2022-07-24T03:55:39;18.00;99.90
7686;DHT22;3885;51.474;-2.576;2022-07-24T03:58:06;18.00;99.90
7686;DHT22;3885;51.474;-2.576;2022-07-24T04:00:33;18.00;99.90
7686;DHT22;3885;51.474;-2.576;2022-07-24T04:03:00;18.00;99.90
7686;DHT22;3885;51.474;-2.576;2022-07-24T04:05:27;18.10;99.90
7686;DHT22;3885;51.474;-2.576;2022-07-24T04:07:54;18.10;99.90
7686;DHT22;3885;51.474;-2.576;2022-07-24T04:10:21;18.00;99.90
7686;DHT22;3885;51.474;-2.576;2022-07-24T04:12:49;18.00;99.90
7686;DHT22;3885;51.474;-2.576;2022-07-24T04:15:16;18.00;99.90
7686;DHT22;3885;51.474;-2.576;2022-07-24T04:17:43;18.10;99.90
7686;DHT22;3885;51.474;-2.576;2022-07-24T04:20:11;18.00;99.90
7686;DHT22;3885;51.474;-2.576;2022-07-24T04:22:38;18.00;99.90
7686;DHT22;3885;51.474;-2.576;2022-07-24T04:25:06;18.00;99.90
7686;DHT22;3885;51.474;-2.576;2022-07-24T04:27:34;18.00;99.90
7686;DHT22;3885;51.474;-2.576;2022-07-24T04:30:03;18.00;99.90
7686;DHT22;3885;51.474;-2.576;2022-07-24T04:32:30;18.00;99.90
7686;DHT22;3885;51.474;-2.576;2022-07-24T04:34:57;18.10;99.90
7686;DHT22;3885;51.474;-2.576;2022-07-24T04:37:24;18.00;99.90
7686;DHT22;3885;51.474;-2.576;2022-07-24T04:39:51;18.00;99.90
7686;DHT22;3885;51.474;-2.576;2022-07-24T04:42:18;18.10;99.90
7686;DHT22;3885;51.474;-2.576;2022-07-24T04:44:45;18.00;99.90
7686;DHT22;3885;51.474;-2.576;2022-07-24T04:47:13;18.00;99.90
7686;DHT22;3885;51.474;-2.576;2022-07-24T04:49:41;18.00;99.90
7686;DHT22;3885;51.474;-2.576;2022-07-24T04:52:08;18.00;99.90
7686;DHT22;3885;51.474;-2.576;2022-07-24T04:54:35;18.00;99.90
7686;DHT22;3885;51.474;-2.576;2022-07-24T04:57:02;18.00;99.90
7686;DHT22;3885;51.474;-2.576;2022-07-24T04:59:29;18.00;99.90
7686;DHT22;3885;51.474;-2.576;2022-07-24T05:01:56;18.00;99.90
7686;DHT22;3885;51.474;-2.576;2022-07-24T05:04:24;18.00;99.90
7686;DHT22;3885;51.474;-2.576;2022-07-24T05:06:51;18.00;99.90
7686;DHT22;3885;51.474;-2.576;2022-07-24T05:09:18;18.00;99.90
7686;DHT22;3885;51.474;-2.576;2022-07-24T05:11:45;18.00;99.90
7686;DHT22;3885;51.474;-2.576;2022-07-24T05:14:11;18.00;99.90
7686;DHT22;3885;51.474;-2.576;2022-07-24T05:16:38;18.00;99.90
7686;DHT22;3885;51.474;-2.576;2022-07-24T05:19:05;18.00;99.90
7686;DHT22;3885;51.474;-2.576;2022-07-24T05:21:34;18.00;99.90
7686;DHT22;3885;51.474;-2.576;2022-07-24T05:24:00;18.00;99.90
7686;DHT22;3885;51.474;-2.576;2022-07-24T05:26:28;18.00;99.90
7686;DHT22;3885;51.474;-2.576;2022-07-24T05:28:57;18.00;99.90
7686;DHT22;3885;51.474;-2.576;2022-07-24T05:31:24;18.00;99.90
7686;DHT22;3885;51.474;-2.576;2022-07-24T05:33:51;18.00;99.90
7686;DHT22;3885;51.474;-2.576;2022-07-24T05:36:18;18.00;99.90
7686;DHT22;3885;51.474;-2.576;2022-07-24T05:38:46;18.00;99.90
7686;DHT22;3885;51.474;-2.576;2022-07-24T05:41:13;18.00;99.90
7686;DHT22;3885;51.474;-2.576;2022-07-24T05:43:40;18.00;99.90
7686;DHT22;3885;51.474;-2.576;2022-07-24T05:46:07;18.00;99.90
7686;DHT22;3885;51.474;-2.576;2022-07-24T05:48:34;18.00;99.90
7686;DHT22;3885;51.474;-2.576;2022-07-24T05:51:01;18.00;99.90
7686;DHT22;3885;51.474;-2.576;2022-07-24T05:53:28;18.00;99.90
7686;DHT22;3885;51.474;-2.576;2022-07-24T05:55:56;18.00;99.90
7686;DHT22;3885;51.474;-2.576;2022-07-24T05:58:23;18.00;99.90
7686;DHT22;3885;51.474;-2.576;2022-07-24T06:00:50;18.10;99.90
7686;DHT22;3885;51.474;-2.576;2022-07-24T06:03:17;18.10;99.90
7686;DHT22;3885;51.474;-2.576;2022-07-24T06:05:44;18.10;99.90
7686;DHT22;3885;51.474;-2.576;2022-07-24T06:08:11;18.20;99.90
7686;DHT22;3885;51.474;-2.576;2022-07-24T06:10:38;18.20;99.90
7686;DHT22;3885;51.474;-2.576;2022-07-24T06:13:06;18.30;99.90
7686;DHT22;3885;51.474;-2.576;2022-07-24T06:15:33;18.30;99.90
7686;DHT22;3885;51.474;-2.576;2022-07-24T06:18:00;18.30;99.90
7686;DHT22;3885;51.474;-2.576;2022-07-24T06:20:27;18.30;99.90
7686;DHT22;3885;51.474;-2.576;2022-07-24T06:22:54;18.30;99.90
7686;DHT22;3885;51.474;-2.576;2022-07-24T06:25:21;18.30;99.90
7686;DHT22;3885;51.474;-2.576;2022-07-24T06:27:50;18.30;99.90
7686;DHT22;3885;51.474;-2.576;2022-07-24T06:30:22;18.40;99.90
7686;DHT22;3885;51.474;-2.576;2022-07-24T06:32:49;18.40;99.90
7686;DHT22;3885;51.474;-2.576;2022-07-24T06:35:18;18.40;99.90
7686;DHT22;3885;51.474;-2.576;2022-07-24T06:37:45;18.40;99.90
7686;DHT22;3885;51.474;-2.576;2022-07-24T06:40:13;18.50;99.90
7686;DHT22;3885;51.474;-2.576;2022-07-24T06:42:40;18.40;99.90
7686;DHT22;3885;51.474;-2.576;2022-07-24T06:45:07;18.50;99.90
7686;DHT22;3885;51.474;-2.576;2022-07-24T06:47:36;18.50;99.90
7686;DHT22;3885;51.474;-2.576;2022-07-24T06:50:03;18.50;99.90
7686;DHT22;3885;51.474;-2.576;2022-07-24T06:52:30;18.50;99.90
7686;DHT22;3885;51.474;-2.576;2022-07-24T06:54:57;18.60;99.90
7686;DHT22;3885;51.474;-2.576;2022-07-24T06:57:24;18.60;99.90
7686;DHT22;3885;51.474;-2.576;2022-07-24T06:59:51;18.50;99.90
7686;DHT22;3885;51.474;-2.576;2022-07-24T07:02:19;18.60;99.90
7686;DHT22;3885;51.474;-2.576;2022-07-24T07:04:48;18.60;99.90
7686;DHT22;3885;51.474;-2.576;2022-07-24T07:07:16;18.70;99.90
7686;DHT22;3885;51.474;-2.576;2022-07-24T07:09:44;18.80;99.90
7686;DHT22;3885;51.474;-2.576;2022-07-24T07:12:11;18.80;99.90
7686;DHT22;3885;51.474;-2.576;2022-07-24T07:14:38;18.90;99.90
7686;DHT22;3885;51.474;-2.576;2022-07-24T07:17:05;18.90;99.90
7686;DHT22;3885;51.474;-2.576;2022-07-24T07:19:31;19.00;99.90
7686;DHT22;3885;51.474;-2.576;2022-07-24T07:22:00;19.00;99.90
7686;DHT22;3885;51.474;-2.576;2022-07-24T07:24:27;19.00;99.90
7686;DHT22;3885;51.474;-2.576;2022-07-24T07:26:53;19.10;99.90
7686;DHT22;3885;51.474;-2.576;2022-07-24T07:29:20;19.00;99.90
7686;DHT22;3885;51.474;-2.576;2022-07-24T07:31:47;19.00;99.90
7686;DHT22;3885;51.474;-2.576;2022-07-24T07:34:14;19.00;99.90
7686;DHT22;3885;51.474;-2.576;2022-07-24T07:36:41;19.10;99.90
7686;DHT22;3885;51.474;-2.576;2022-07-24T07:39:09;19.10;99.90
7686;DHT22;3885;51.474;-2.576;2022-07-24T07:41:36;19.00;99.90
7686;DHT22;3885;51.474;-2.576;2022-07-24T07:44:04;19.10;99.90
7686;DHT22;3885;51.474;-2.576;2022-07-24T07:46:30;19.00;99.90
7686;DHT22;3885;51.474;-2.576;2022-07-24T07:48:57;19.10;99.90
7686;DHT22;3885;51.474;-2.576;2022-07-24T07:51:24;19.10;99.90
7686;DHT22;3885;51.474;-2.576;2022-07-24T07:53:51;19.10;99.90
7686;DHT22;3885;51.474;-2.576;2022-07-24T07:56:19;19.20;99.90
7686;DHT22;3885;51.474;-2.576;2022-07-24T07:58:46;19.30;99.90
7686;DHT22;3885;51.474;-2.576;2022-07-24T08:01:13;19.30;99.90
7686;DHT22;3885;51.474;-2.576;2022-07-24T08:03:40;19.30;99.90
7686;DHT22;3885;51.474;-2.576;2022-07-24T08:06:07;19.40;99.90
7686;DHT22;3885;51.474;-2.576;2022-07-24T08:08:35;19.40;99.90
7686;DHT22;3885;51.474;-2.576;2022-07-24T08:11:01;19.30;99.90
7686;DHT22;3885;51.474;-2.576;2022-07-24T08:13:30;19.40;99.90
7686;DHT22;3885;51.474;-2.576;2022-07-24T08:15:57;19.40;99.90
7686;DHT22;3885;51.474;-2.576;2022-07-24T08:18:24;19.40;99.90
7686;DHT22;3885;51.474;-2.576;2022-07-24T08:20:51;19.30;99.90
7686;DHT22;3885;51.474;-2.576;2022-07-24T08:23:18;19.40;99.90
7686;DHT22;3885;51.474;-2.576;2022-07-24T08:25:46;19.40;99.90
7686;DHT22;3885;51.474;-2.576;2022-07-24T08:28:13;19.50;99.90
7686;DHT22;3885;51.474;-2.576;2022-07-24T08:30:41;19.50;99.90
7686;DHT22;3885;51.474;-2.576;2022-07-24T08:33:08;19.50;99.90
7686;DHT22;3885;51.474;-2.576;2022-07-24T08:35:35;19.60;99.90
7686;DHT22;3885;51.474;-2.576;2022-07-24T08:38:02;19.70;99.90
7686;DHT22;3885;51.474;-2.576;2022-07-24T08:40:33;19.70;99.90
7686;DHT22;3885;51.474;-2.576;2022-07-24T08:43:01;19.90;99.90
7686;DHT22;3885;51.474;-2.576;2022-07-24T08:45:29;20.00;99.90
7686;DHT22;3885;51.474;-2.576;2022-07-24T08:48:02;20.20;99.90
7686;DHT22;3885;51.474;-2.576;2022-07-24T08:50:29;20.30;99.90
7686;DHT22;3885;51.474;-2.576;2022-07-24T08:52:58;20.40;99.90
7686;DHT22;3885;51.474;-2.576;2022-07-24T08:55:26;20.40;99.90
7686;DHT22;3885;51.474;-2.576;2022-07-24T08:57:55;20.50;99.90
7686;DHT22;3885;51.474;-2.576;2022-07-24T09:00:22;20.70;99.90
7686;DHT22;3885;51.474;-2.576;2022-07-24T09:02:49;20.90;99.90
7686;DHT22;3885;51.474;-2.576;2022-07-24T09:05:17;21.10;99.90
7686;DHT22;3885;51.474;-2.576;2022-07-24T09:07:44;21.20;99.90
7686;DHT22;3885;51.474;-2.576;2022-07-24T09:10:14;21.40;99.90
7686;DHT22;3885;51.474;-2.576;2022-07-24T09:12:43;21.50;99.90
7686;DHT22;3885;51.474;-2.576;2022-07-24T09:15:12;21.50;99.90
7686;DHT22;3885;51.474;-2.576;2022-07-24T09:17:50;21.40;99.90
7686;DHT22;3885;51.474;-2.576;2022-07-24T09:20:19;21.40;99.90
7686;DHT22;3885;51.474;-2.576;2022-07-24T09:22:47;21.30;99.90
7686;DHT22;3885;51.474;-2.576;2022-07-24T09:25:16;21.20;99.90
7686;DHT22;3885;51.474;-2.576;2022-07-24T09:27:48;21.20;99.90
7686;DHT22;3885;51.474;-2.576;2022-07-24T09:30:28;21.20;99.90
7686;DHT22;3885;51.474;-2.576;2022-07-24T09:32:58;21.40;99.90
7686;DHT22;3885;51.474;-2.576;2022-07-24T09:35:36;21.70;99.90
7686;DHT22;3885;51.474;-2.576;2022-07-24T09:38:04;22.00;99.90
7686;DHT22;3885;51.474;-2.576;2022-07-24T09:40:33;22.00;99.90
7686;DHT22;3885;51.474;-2.576;2022-07-24T09:43:15;21.90;99.90
7686;DHT22;3885;51.474;-2.576;2022-07-24T09:45:56;21.80;99.90
7686;DHT22;3885;51.474;-2.576;2022-07-24T09:48:26;21.70;99.90
7686;DHT22;3885;51.474;-2.576;2022-07-24T09:50:56;21.80;99.90
7686;DHT22;3885;51.474;-2.576;2022-07-24T09:53:25;21.70;99.90
7686;DHT22;3885;51.474;-2.576;2022-07-24T09:56:00;21.50;99.90
7686;DHT22;3885;51.474;-2.576;2022-07-24T09:58:29;21.30;99.90
7686;DHT22;3885;51.474;-2.576;2022-07-24T10:00:57;21.10;99.90
7686;DHT22;3885;51.474;-2.576;2022-07-24T10:03:27;21.10;99.90
7686;DHT22;3885;51.474;-2.576;2022-07-24T10:05:58;21.20;99.90
7686;DHT22;3885;51.474;-2.576;2022-07-24T10:08:26;21.30;99.90
7686;DHT22;3885;51.474;-2.576;2022-07-24T10:10:53;21.40;99.90
7686;DHT22;3885;51.474;-2.576;2022-07-24T10:13:20;21.60;99.90
7686;DHT22;3885;51.474;-2.576;2022-07-24T10:16:06;21.80;99.90
7686;DHT22;3885;51.474;-2.576;2022-07-24T10:18:46;22.10;99.90
7686;DHT22;3885;51.474;-2.576;2022-07-24T10:21:17;22.40;99.90
7686;DHT22;3885;51.474;-2.576;2022-07-24T10:26:42;22.20;99.90
7686;DHT22;3885;51.474;-2.576;2022-07-24T10:29:11;22.10;99.90
7686;DHT22;3885;51.474;-2.576;2022-07-24T10:31:39;21.50;99.90
7686;DHT22;3885;51.474;-2.576;2022-07-24T10:34:13;21.60;99.90
7686;DHT22;3885;51.474;-2.576;2022-07-24T10:36:48;21.50;99.90
7686;DHT22;3885;51.474;-2.576;2022-07-24T10:39:22;21.40;99.90
7686;DHT22;3885;51.474;-2.576;2022-07-24T10:42:01;21.60;99.90
7686;DHT22;3885;51.474;-2.576;2022-07-24T10:44:29;21.70;99.90
7686;DHT22;3885;51.474;-2.576;2022-07-24T10:46:57;21.90;99.90
7686;DHT22;3885;51.474;-2.576;2022-07-24T10:49:44;22.10;99.90
7686;DHT22;3885;51.474;-2.576;2022-07-24T10:52:25;22.00;99.90
7686;DHT22;3885;51.474;-2.576;2022-07-24T10:55:23;22.20;99.90
7686;DHT22;3885;51.474;-2.576;2022-07-24T10:57:55;22.30;99.90
7686;DHT22;3885;51.474;-2.576;2022-07-24T11:00:24;22.40;99.90
7686;DHT22;3885;51.474;-2.576;2022-07-24T11:02:56;22.60;99.90
7686;DHT22;3885;51.474;-2.576;2022-07-24T11:05:27;22.70;99.90
7686;DHT22;3885;51.474;-2.576;2022-07-24T11:11:07;22.50;99.90
7686;DHT22;3885;51.474;-2.576;2022-07-24T11:13:58;22.30;99.90
7686;DHT22;3885;51.474;-2.576;2022-07-24T11:16:28;22.30;99.90
7686;DHT22;3885;51.474;-2.576;2022-07-24T11:19:24;22.30;99.90
7686;DHT22;3885;51.474;-2.576;2022-07-24T11:22:07;22.30;99.90
7686;DHT22;3885;51.474;-2.576;2022-07-24T11:24:34;22.40;99.90
7686;DHT22;3885;51.474;-2.576;2022-07-24T11:27:08;22.70;99.90
7686;DHT22;3885;51.474;-2.576;2022-07-24T11:29:39;22.80;99.90
7686;DHT22;3885;51.474;-2.576;2022-07-24T11:32:08;22.70;99.90
7686;DHT22;3885;51.474;-2.576;2022-07-24T11:34:37;22.60;99.90
7686;DHT22;3885;51.474;-2.576;2022-07-24T11:37:04;22.60;99.90
7686;DHT22;3885;51.474;-2.576;2022-07-24T11:39:33;22.70;99.90
7686;DHT22;3885;51.474;-2.576;2022-07-24T11:42:02;22.70;99.90
7686;DHT22;3885;51.474;-2.576;2022-07-24T11:44:33;23.00;99.90
7686;DHT22;3885;51.474;-2.576;2022-07-24T11:47:05;23.40;99.90
7686;DHT22;3885;51.474;-2.576;2022-07-24T11:49:39;23.60;99.90
7686;DHT22;3885;51.474;-2.576;2022-07-24T11:52:06;23.40;99.90
7686;DHT22;3885;51.474;-2.576;2022-07-24T11:54:33;23.30;99.90
7686;DHT22;3885;51.474;-2.576;2022-07-24T11:57:00;23.20;99.90
7686;DHT22;3885;51.474;-2.576;2022-07-24T11:59:28;23.10;99.90
7686;DHT22;3885;51.474;-2.576;2022-07-24T12:02:03;23.00;99.90
7686;DHT22;3885;51.474;-2.576;2022-07-24T12:04:30;22.90;99.90
7686;DHT22;3885;51.474;-2.576;2022-07-24T12:06:57;22.90;99.90
7686;DHT22;3885;51.474;-2.576;2022-07-24T12:09:24;23.10;99.90
7686;DHT22;3885;51.474;-2.576;2022-07-24T12:11:51;23.20;99.90
7686;DHT22;3885;51.474;-2.576;2022-07-24T12:14:20;23.40;99.90
7686;DHT22;3885;51.474;-2.576;2022-07-24T12:16:51;23.40;99.90
7686;DHT22;3885;51.474;-2.576;2022-07-24T12:19:21;23.60;99.90
7686;DHT22;3885;51.474;-2.576;2022-07-24T12:21:51;23.40;99.90
7686;DHT22;3885;51.474;-2.576;2022-07-24T12:24:19;23.20;99.90
7686;DHT22;3885;51.474;-2.576;2022-07-24T12:26:50;23.30;99.90
7686;DHT22;3885;51.474;-2.576;2022-07-24T12:29:17;23.30;99.90
7686;DHT22;3885;51.474;-2.576;2022-07-24T12:31:45;23.30;99.90
7686;DHT22;3885;51.474;-2.576;2022-07-24T12:34:12;23.30;99.90
7686;DHT22;3885;51.474;-2.576;2022-07-24T12:36:40;23.40;99.90
7686;DHT22;3885;51.474;-2.576;2022-07-24T12:39:08;23.40;99.90
7686;DHT22;3885;51.474;-2.576;2022-07-24T12:41:43;23.60;99.90
7686;DHT22;3885;51.474;-2.576;2022-07-24T12:44:10;24.00;99.90
7686;DHT22;3885;51.474;-2.576;2022-07-24T12:46:39;24.40;99.90
7686;DHT22;3885;51.474;-2.576;2022-07-24T12:49:07;24.60;99.90
7686;DHT22;3885;51.474;-2.576;2022-07-24T12:51:49;24.70;99.90
7686;DHT22;3885;51.474;-2.576;2022-07-24T12:54:18;24.70;99.90
7686;DHT22;3885;51.474;-2.576;2022-07-24T12:56:46;25.00;99.90
7686;DHT22;3885;51.474;-2.576;2022-07-24T12:59:25;25.10;99.90
7686;DHT22;3885;51.474;-2.576;2022-07-24T13:01:54;24.90;99.90
7686;DHT22;3885;51.474;-2.576;2022-07-24T13:04:23;24.90;99.90
7686;DHT22;3885;51.474;-2.576;2022-07-24T13:06:53;24.90;99.90
7686;DHT22;3885;51.474;-2.576;2022-07-24T13:09:21;25.00;99.90
7686;DHT22;3885;51.474;-2.576;2022-07-24T13:11:49;24.90;99.90
7686;DHT22;3885;51.474;-2.576;2022-07-24T13:14:18;24.90;99.90
7686;DHT22;3885;51.474;-2.576;2022-07-24T13:16:47;24.80;99.90
7686;DHT22;3885;51.474;-2.576;2022-07-24T13:19:15;24.60;99.90
7686;DHT22;3885;51.474;-2.576;2022-07-24T13:21:43;24.50;99.90
7686;DHT22;3885;51.474;-2.576;2022-07-24T13:24:13;24.50;99.90
7686;DHT22;3885;51.474;-2.576;2022-07-24T13:26:41;24.60;99.90
7686;DHT22;3885;51.474;-2.576;2022-07-24T13:29:09;24.70;99.90
7686;DHT22;3885;51.474;-2.576;2022-07-24T13:31:38;24.90;99.90
7686;DHT22;3885;51.474;-2.576;2022-07-24T13:34:05;25.00;99.90
7686;DHT22;3885;51.474;-2.576;2022-07-24T13:36:32;25.10;99.90
7686;DHT22;3885;51.474;-2.576;2022-07-24T13:38:59;25.00;99.90
7686;DHT22;3885;51.474;-2.576;2022-07-24T13:41:27;24.90;99.90
7686;DHT22;3885;51.474;-2.576;2022-07-24T13:43:55;24.90;99.90
7686;DHT22;3885;51.474;-2.576;2022-07-24T13:46:22;24.80;99.90
7686;DHT22;3885;51.474;-2.576;2022-07-24T13:48:49;24.40;99.90
7686;DHT22;3885;51.474;-2.576;2022-07-24T13:51:17;24.20;99.90
7686;DHT22;3885;51.474;-2.576;2022-07-24T13:53:44;24.20;99.90
7686;DHT22;3885;51.474;-2.576;2022-07-24T13:56:11;24.30;99.90
7686;DHT22;3885;51.474;-2.576;2022-07-24T13:58:40;24.30;99.90
7686;DHT22;3885;51.474;-2.576;2022-07-24T14:01:08;24.20;99.90
7686;DHT22;3885;51.474;-2.576;2022-07-24T14:03:35;24.10;99.90
7686;DHT22;3885;51.474;-2.576;2022-07-24T14:06:05;24.10;99.90
7686;DHT22;3885;51.474;-2.576;2022-07-24T14:08:32;24.10;99.90
7686;DHT22;3885;51.474;-2.576;2022-07-24T14:10:59;24.00;99.90
7686;DHT22;3885;51.474;-2.576;2022-07-24T14:13:26;24.00;99.90
7686;DHT22;3885;51.474;-2.576;2022-07-24T14:15:54;24.00;99.90
7686;DHT22;3885;51.474;-2.576;2022-07-24T14:18:21;24.00;99.90
7686;DHT22;3885;51.474;-2.576;2022-07-24T14:20:48;24.00;99.90
7686;DHT22;3885;51.474;-2.576;2022-07-24T14:23:15;24.00;99.90
7686;DHT22;3885;51.474;-2.576;2022-07-24T14:25:43;24.20;99.90
7686;DHT22;3885;51.474;-2.576;2022-07-24T14:28:10;24.30;99.90
7686;DHT22;3885;51.474;-2.576;2022-07-24T14:30:37;24.30;99.90
7686;DHT22;3885;51.474;-2.576;2022-07-24T14:33:05;24.20;99.90
7686;DHT22;3885;51.474;-2.576;2022-07-24T14:35:32;24.10;99.90
7686;DHT22;3885;51.474;-2.576;2022-07-24T14:38:00;24.20;99.90
7686;DHT22;3885;51.474;-2.576;2022-07-24T14:40:27;24.20;99.90
7686;DHT22;3885;51.474;-2.576;2022-07-24T14:42:54;24.30;99.90
7686;DHT22;3885;51.474;-2.576;2022-07-24T14:45:21;24.30;99.90
7686;DHT22;3885;51.474;-2.576;2022-07-24T14:47:48;24.30;99.90
7686;DHT22;3885;51.474;-2.576;2022-07-24T14:50:16;24.30;99.90
7686;DHT22;3885;51.474;-2.576;2022-07-24T14:52:43;24.30;99.90
7686;DHT22;3885;51.474;-2.576;2022-07-24T14:55:10;24.50;99.90
7686;DHT22;3885;51.474;-2.576;2022-07-24T14:57:37;24.60;99.90
7686;DHT22;3885;51.474;-2.576;2022-07-24T15:00:05;24.90;99.90
7686;DHT22;3885;51.474;-2.576;2022-07-24T15:02:33;25.10;99.90
7686;DHT22;3885;51.474;-2.576;2022-07-24T15:05:00;25.30;99.90
7686;DHT22;3885;51.474;-2.576;2022-07-24T15:07:28;25.40;99.90
7686;DHT22;3885;51.474;-2.576;2022-07-24T15:09:55;25.50;99.90
7686;DHT22;3885;51.474;-2.576;2022-07-24T15:12:22;25.60;99.90
7686;DHT22;3885;51.474;-2.576;2022-07-24T15:14:49;25.70;99.90
7686;DHT22;3885;51.474;-2.576;2022-07-24T15:17:16;25.80;99.90
7686;DHT22;3885;51.474;-2.576;2022-07-24T15:19:43;25.90;99.90
7686;DHT22;3885;51.474;-2.576;2022-07-24T15:22:10;26.10;99.90
7686;DHT22;3885;51.474;-2.576;2022-07-24T15:24:38;25.90;99.90
7686;DHT22;3885;51.474;-2.576;2022-07-24T15:27:05;25.90;99.90
7686;DHT22;3885;51.474;-2.576;2022-07-24T15:29:32;25.80;99.90
7686;DHT22;3885;51.474;-2.576;2022-07-24T15:31:59;25.50;99.90
7686;DHT22;3885;51.474;-2.576;2022-07-24T15:34:26;25.40;99.90
7686;DHT22;3885;51.474;-2.576;2022-07-24T15:36:53;25.40;99.90
7686;DHT22;3885;51.474;-2.576;2022-07-24T15:39:20;25.10;99.90
7686;DHT22;3885;51.474;-2.576;2022-07-24T15:41:48;24.80;99.90
7686;DHT22;3885;51.474;-2.576;2022-07-24T15:44:15;24.50;99.90
7686;DHT22;3885;51.474;-2.576;2022-07-24T15:46:42;24.40;99.90
7686;DHT22;3885;51.474;-2.576;2022-07-24T15:49:09;24.40;99.90
7686;DHT22;3885;51.474;-2.576;2022-07-24T15:51:36;24.40;99.90
7686;DHT22;3885;51.474;-2.576;2022-07-24T15:54:03;24.40;99.90
7686;DHT22;3885;51.474;-2.576;2022-07-24T15:56:30;24.30;99.90
7686;DHT22;3885;51.474;-2.576;2022-07-24T15:58:58;24.30;99.90